Time;durP1;ratioP1;P1;durP2;ratioP2;P2;SDS_P1;SDS_P2;PMS_P1;PMS_P2;Temp;Humidity;BMP_temperature;BMP_pressure;BME280_temperature;BME280_humidity;BME280_pressure;Samples;Min_cycle;Max_cycle;Signal;HPM_P1;HPM_P2
2023/08/18 00:01:31;;;;;;;1.75;1.35;;;28.00;56.00;;;;;;5076134;28;20024;-72
2023/08/18 00:04:02;;;;;;;2.15;1.50;;;28.00;56.00;;;;;;5080759;28;20024;-72
2023/08/18 00:06:27;;;;;;;2.20;1.48;;;28.00;56.00;;;;;;5081439;28;20028;-72
2023/08/18 00:08:53;;;;;;;1.45;1.20;;;28.00;56.00;;;;;;5081573;28;20149;-71
2023/08/18 00:11:18;;;;;;;2.33;1.50;;;28.00;56.10;;;;;;5082656;28;20037;-72
2023/08/18 00:13:44;;;;;;;2.63;1.50;;;28.00;56.10;;;;;;5080257;28;20029;-72
2023/08/18 00:16:10;;;;;;;2.38;1.58;;;28.00;56.10;;;;;;5081987;28;20025;-72
2023/08/18 00:18:35;;;;;;;2.28;1.50;;;28.00;56.10;;;;;;5081362;28;20094;-72
2023/08/18 00:21:01;;;;;;;2.35;1.50;;;28.00;56.10;;;;;;5081992;28;20079;-72
2023/08/18 00:23:26;;;;;;;2.22;1.50;;;28.00;56.10;;;;;;5080549;28;20027;-71
2023/08/18 00:25:52;;;;;;;1.83;1.33;;;27.90;56.00;;;;;;5081294;28;20024;-72
2023/08/18 00:28:18;;;;;;;2.25;1.50;;;28.00;56.10;;;;;;5081756;28;20022;-72
2023/08/18 00:30:43;;;;;;;3.20;1.58;;;28.00;56.10;;;;;;5080465;28;20568;-72
2023/08/18 00:33:09;;;;;;;2.15;1.45;;;28.00;56.10;;;;;;5081656;28;20359;-71
2023/08/18 00:35:34;;;;;;;1.70;1.30;;;28.00;56.10;;;;;;5082386;28;20024;-70
2023/08/18 00:38:00;;;;;;;2.08;1.50;;;28.00;56.10;;;;;;5079888;28;20021;-72
2023/08/18 00:40:26;;;;;;;1.52;1.15;;;28.00;56.10;;;;;;5079822;28;20029;-72
2023/08/18 00:42:52;;;;;;;2.25;1.50;;;28.00;56.10;;;;;;5081365;28;20029;-72
2023/08/18 00:45:17;;;;;;;2.53;1.58;;;28.00;56.10;;;;;;5079424;28;20024;-72
2023/08/18 00:47:44;;;;;;;1.77;1.20;;;28.00;56.10;;;;;;5081054;28;20071;-64
2023/08/18 00:50:11;;;;;;;1.90;1.30;;;27.90;56.00;;;;;;5081356;28;20060;-64
2023/08/18 00:52:42;;;;;;;1.85;1.40;;;27.90;56.20;;;;;;5081610;28;20024;-63
2023/08/18 00:55:09;;;;;;;2.20;1.40;;;27.90;56.00;;;;;;5079191;28;20438;-66
2023/08/18 00:57:35;;;;;;;2.05;1.40;;;27.90;56.00;;;;;;5081358;28;20394;-65
2023/08/18 01:00:02;;;;;;;1.75;1.30;;;27.90;56.00;;;;;;5079947;28;20497;-65
2023/08/18 01:02:28;;;;;;;1.45;1.13;;;27.90;56.40;;;;;;5081305;28;20536;-65
2023/08/18 01:05:00;;;;;;;1.95;1.45;;;27.90;56.60;;;;;;5081668;28;20033;-64
2023/08/18 01:07:26;;;;;;;1.90;1.20;;;27.90;56.00;;;;;;5079480;28;20107;-64
2023/08/18 01:09:51;;;;;;;1.90;1.20;;;27.90;56.00;;;;;;5078512;28;20120;-71
2023/08/18 01:12:44;;;;;;;1.65;1.20;;;27.90;56.00;;;;;;5080441;28;20488;-71
2023/08/18 01:15:17;;;;;;;1.60;1.10;;;27.90;56.00;;;;;;5077878;28;20024;-71
2023/08/18 01:17:55;;;;;;;1.40;1.08;;;27.90;56.00;;;;;;5077732;28;20488;-72
2023/08/18 01:20:22;;;;;;;1.60;1.20;;;27.90;56.00;;;;;;5082200;28;20035;-72
2023/08/18 01:23:00;;;;;;;1.63;1.20;;;27.80;55.90;;;;;;5078923;28;20071;-72
2023/08/18 01:25:27;;;;;;;1.75;1.20;;;27.90;56.00;;;;;;5081214;28;20098;-72
2023/08/18 01:27:54;;;;;;;1.63;1.20;;;27.80;55.90;;;;;;5079265;28;20050;-72
2023/08/18 01:30:20;;;;;;;1.92;1.20;;;27.80;56.00;;;;;;5080171;28;20489;-72
2023/08/18 01:32:57;;;;;;;1.58;1.23;;;27.80;55.90;;;;;;5080138;28;20048;-71
2023/08/18 01:35:25;;;;;;;1.52;1.33;;;27.80;55.90;;;;;;5079561;28;20033;-72
2023/08/18 01:37:54;;;;;;;1.30;1.10;;;27.80;55.90;;;;;;5079626;28;20480;-72
2023/08/18 01:40:23;;;;;;;1.30;1.10;;;27.80;55.90;;;;;;5079025;28;20074;-71
2023/08/18 01:42:48;;;;;;;1.42;1.15;;;27.80;55.90;;;;;;5079083;28;20027;-72
2023/08/18 01:45:15;;;;;;;1.73;1.30;;;27.80;55.90;;;;;;5079426;28;20029;-72
2023/08/18 01:47:40;;;;;;;1.45;1.10;;;27.80;55.90;;;;;;5082009;28;20025;-72
2023/08/18 01:50:06;;;;;;;1.70;1.10;;;27.80;55.90;;;;;;5080298;28;20441;-72
2023/08/18 01:52:32;;;;;;;1.70;1.10;;;27.80;55.90;;;;;;5080075;28;20119;-71
2023/08/18 01:54:57;;;;;;;1.55;1.10;;;27.80;55.90;;;;;;5079104;28;20555;-72
2023/08/18 01:57:23;;;;;;;1.85;1.20;;;27.80;55.90;;;;;;5078976;28;20031;-72
2023/08/18 01:59:49;;;;;;;1.90;1.27;;;27.80;55.90;;;;;;5076005;28;20420;-72
2023/08/18 02:02:15;;;;;;;1.75;1.20;;;27.80;55.90;;;;;;5080384;28;20028;-71
2023/08/18 02:04:40;;;;;;;1.60;1.13;;;27.80;55.90;;;;;;5078018;28;20096;-71
2023/08/18 02:07:06;;;;;;;1.60;1.15;;;27.80;55.90;;;;;;5079529;28;20036;-72
2023/08/18 02:09:32;;;;;;;1.20;1.10;;;27.80;56.40;;;;;;5079486;28;20161;-69
2023/08/18 02:11:57;;;;;;;1.60;1.00;;;27.80;55.90;;;;;;5077964;28;20035;-68
2023/08/18 02:14:23;;;;;;;1.50;1.20;;;27.80;55.90;;;;;;5078467;28;20021;-69
2023/08/18 02:16:48;;;;;;;1.88;1.27;;;27.70;55.80;;;;;;5076357;28;20024;-69
2023/08/18 02:19:14;;;;;;;1.58;1.13;;;27.80;55.90;;;;;;5078385;28;20030;-69
2023/08/18 02:21:40;;;;;;;1.90;1.20;;;27.80;55.90;;;;;;5082053;28;20043;-68
2023/08/18 02:24:05;;;;;;;1.55;1.10;;;27.80;55.90;;;;;;5076534;28;20123;-69
2023/08/18 02:26:31;;;;;;;1.58;1.10;;;27.70;55.80;;;;;;5080753;28;20060;-69
2023/08/18 02:28:56;;;;;;;1.55;1.10;;;27.70;55.80;;;;;;5076613;28;20101;-68
2023/08/18 02:31:22;;;;;;;1.50;1.10;;;27.70;56.30;;;;;;5076668;28;20024;-69
2023/08/18 02:33:48;;;;;;;1.45;1.15;;;27.70;55.80;;;;;;5078925;28;20484;-69
2023/08/18 02:36:13;;;;;;;1.30;1.00;;;27.70;55.80;;;;;;5079922;28;20029;-68
2023/08/18 02:38:39;;;;;;;1.80;1.20;;;27.70;55.80;;;;;;5077132;28;20028;-69
2023/08/18 02:41:04;;;;;;;1.75;1.20;;;27.70;55.80;;;;;;5079361;28;20031;-68
2023/08/18 02:43:30;;;;;;;1.58;1.10;;;27.70;55.80;;;;;;5076801;28;20380;-69
2023/08/18 02:45:57;;;;;;;1.48;1.00;;;27.70;55.80;;;;;;5077098;28;20476;-68
2023/08/18 02:48:28;;;;;;;1.60;1.10;;;27.70;55.80;;;;;;5079853;28;20515;-69
2023/08/18 02:51:03;;;;;;;1.80;1.30;;;27.70;55.80;;;;;;5080285;28;20028;-69
2023/08/18 02:53:29;;;;;;;1.20;1.00;;;27.70;55.80;;;;;;5079001;28;20024;-69
2023/08/18 02:55:56;;;;;;;1.38;1.08;;;27.70;55.80;;;;;;5078233;28;20036;-69
2023/08/18 02:58:24;;;;;;;1.77;1.17;;;27.70;55.80;;;;;;5077492;28;20392;-69
2023/08/18 03:00:50;;;;;;;1.20;1.00;;;27.70;55.80;;;;;;5079200;28;20494;-70
2023/08/18 03:03:15;;;;;;;1.67;1.10;;;27.70;55.80;;;;;;5076708;28;20255;-68
2023/08/18 03:05:41;;;;;;;1.30;1.00;;;27.70;55.80;;;;;;5078092;28;20055;-69
2023/08/18 03:08:06;;;;;;;1.40;1.10;;;27.70;55.80;;;;;;5079397;28;20107;-69
2023/08/18 03:10:32;;;;;;;1.38;1.02;;;27.60;55.70;;;;;;5077939;28;20020;-65
2023/08/18 03:12:58;;;;;;;1.63;1.20;;;27.70;55.80;;;;;;5077285;28;20025;-65
2023/08/18 03:15:24;;;;;;;1.50;1.10;;;27.60;55.70;;;;;;5076357;28;20489;-66
2023/08/18 03:17:50;;;;;;;1.45;1.10;;;27.60;55.70;;;;;;5078185;28;20029;-65
2023/08/18 03:20:16;;;;;;;1.33;1.10;;;27.60;55.70;;;;;;5078228;28;20145;-72
2023/08/18 03:22:41;;;;;;;1.10;1.00;;;27.60;55.70;;;;;;5077546;28;20095;-71
2023/08/18 03:25:07;;;;;;;1.30;1.08;;;27.60;55.70;;;;;;5059898;28;20991;-71
2023/08/18 03:27:33;;;;;;;1.60;1.15;;;27.60;55.70;;;;;;5077465;28;20032;-72
2023/08/18 03:29:59;;;;;;;1.20;1.10;;;27.60;55.70;;;;;;5075804;28;20047;-72
2023/08/18 03:32:25;;;;;;;1.63;1.08;;;27.60;55.70;;;;;;5078017;28;20369;-72
2023/08/18 03:34:53;;;;;;;1.20;1.00;;;27.60;55.70;;;;;;5076993;28;20024;-72
2023/08/18 03:37:19;;;;;;;1.73;1.10;;;27.60;55.70;;;;;;5076910;28;20051;-72
2023/08/18 03:39:45;;;;;;;1.50;1.00;;;27.60;55.70;;;;;;5082680;28;20035;-72
2023/08/18 03:42:11;;;;;;;1.83;1.10;;;27.60;55.70;;;;;;5081346;28;20475;-72
2023/08/18 03:44:37;;;;;;;1.95;1.23;;;27.60;55.70;;;;;;5081933;28;20031;-71
2023/08/18 03:47:03;;;;;;;1.48;1.00;;;27.60;55.70;;;;;;5082244;28;20025;-70
2023/08/18 03:49:29;;;;;;;1.30;1.10;;;27.60;55.70;;;;;;5083505;28;20072;-71
2023/08/18 03:51:54;;;;;;;1.25;0.90;;;27.60;55.70;;;;;;5082960;28;20039;-72
2023/08/18 03:54:20;;;;;;;1.20;1.00;;;27.60;55.70;;;;;;5082247;28;20028;-71
2023/08/18 03:56:46;;;;;;;1.60;1.10;;;27.60;55.70;;;;;;5081905;28;20020;-72
2023/08/18 03:59:11;;;;;;;1.35;1.02;;;27.60;55.70;;;;;;5083908;28;20476;-71
2023/08/18 04:01:37;;;;;;;1.13;0.95;;;27.60;55.70;;;;;;5081001;28;20028;-71
2023/08/18 04:04:08;;;;;;;1.17;1.00;;;27.60;55.70;;;;;;5080295;28;20050;-72
2023/08/18 04:06:33;;;;;;;1.27;1.00;;;27.60;55.70;;;;;;5081963;28;20506;-72
2023/08/18 04:09:08;;;;;;;2.50;1.23;;;27.50;55.70;;;;;;5083140;28;20112;-72
2023/08/18 04:11:34;;;;;;;2.75;1.27;;;27.50;53.90;;;;;;5082430;28;20053;-72
2023/08/18 04:14:00;;;;;;;1.77;1.35;;;27.50;52.60;;;;;;5079165;28;20032;-72
2023/08/18 04:16:26;;;;;;;2.53;1.40;;;27.50;51.70;;;;;;5080566;28;20387;-72
2023/08/18 04:18:52;;;;;;;2.08;1.55;;;27.50;50.90;;;;;;5067847;28;20027;-72
2023/08/18 04:21:17;;;;;;;2.40;1.55;;;27.50;50.50;;;;;;5082665;28;20029;-72
2023/08/18 04:23:43;;;;;;;2.40;1.40;;;27.40;50.40;;;;;;5081102;28;20025;-71
2023/08/18 04:26:09;;;;;;;1.70;1.23;;;27.40;50.00;;;;;;5080190;28;20039;-71
2023/08/18 04:28:34;;;;;;;2.25;1.30;;;27.30;49.70;;;;;;5081089;28;20511;-65
2023/08/18 04:31:00;;;;;;;2.65;1.50;;;27.30;49.50;;;;;;5079193;28;20095;-66
2023/08/18 04:33:26;;;;;;;1.92;1.30;;;27.30;49.40;;;;;;5080079;28;20028;-64
2023/08/18 04:35:52;;;;;;;2.63;1.30;;;27.20;49.40;;;;;;5080269;28;20024;-65
2023/08/18 04:38:17;;;;;;;2.03;1.40;;;27.20;49.40;;;;;;5080906;28;20032;-65
2023/08/18 04:40:43;;;;;;;2.17;1.50;;;27.20;49.60;;;;;;5079935;28;20435;-65
2023/08/18 04:43:09;;;;;;;2.30;1.30;;;27.10;49.40;;;;;;5081729;28;20020;-65
2023/08/18 04:45:35;;;;;;;3.08;1.27;;;27.10;49.40;;;;;;5079699;28;20103;-65
2023/08/18 04:48:00;;;;;;;1.75;1.15;;;27.00;49.30;;;;;;5078097;28;20033;-65
2023/08/18 04:50:26;;;;;;;1.80;1.23;;;27.00;49.40;;;;;;5081549;28;20033;-69
2023/08/18 04:52:52;;;;;;;3.85;1.55;;;27.00;49.50;;;;;;5081670;28;20071;-68
2023/08/18 04:55:17;;;;;;;3.17;1.83;;;26.90;49.50;;;;;;5082287;28;20089;-68
2023/08/18 04:57:43;;;;;;;3.63;1.67;;;26.90;49.60;;;;;;5081003;28;20150;-69
2023/08/18 05:00:11;;;;;;;2.88;1.48;;;26.80;49.60;;;;;;5079969;28;20028;-68
2023/08/18 05:02:36;;;;;;;2.88;1.30;;;26.80;49.70;;;;;;5078437;28;20028;-68
2023/08/18 05:05:03;;;;;;;1.90;1.30;;;26.80;49.80;;;;;;5079660;28;20104;-68
2023/08/18 05:07:28;;;;;;;1.90;1.20;;;26.70;49.90;;;;;;5071556;28;20387;-68
2023/08/18 05:09:54;;;;;;;2.05;1.50;;;26.70;50.00;;;;;;5080510;28;20103;-68
2023/08/18 05:12:20;;;;;;;2.03;1.45;;;26.70;50.10;;;;;;5078490;28;20196;-69
2023/08/18 05:14:46;;;;;;;1.90;1.30;;;26.60;50.20;;;;;;5079152;28;20480;-68
2023/08/18 05:17:12;;;;;;;1.85;1.25;;;26.60;50.30;;;;;;5081892;28;20035;-69
2023/08/18 05:19:37;;;;;;;2.17;1.30;;;26.60;50.50;;;;;;5080595;28;20534;-68
2023/08/18 05:22:03;;;;;;;2.22;1.40;;;26.50;50.60;;;;;;5080211;28;20032;-69
2023/08/18 05:24:28;;;;;;;1.52;1.30;;;26.50;50.60;;;;;;5082096;28;20116;-68
2023/08/18 05:26:54;;;;;;;1.35;1.10;;;26.50;50.70;;;;;;5079286;28;20056;-67
2023/08/18 05:29:20;;;;;;;1.73;1.17;;;26.40;50.80;;;;;;5079883;28;20479;-70
2023/08/18 05:31:48;;;;;;;2.22;1.30;;;26.40;50.90;;;;;;5079784;28;20033;-69
2023/08/18 05:34:13;;;;;;;1.77;1.20;;;26.40;51.00;;;;;;5080475;28;20809;-70
2023/08/18 05:36:39;;;;;;;1.73;1.30;;;26.40;51.20;;;;;;5079073;28;20016;-69
2023/08/18 05:39:05;;;;;;;2.00;1.30;;;26.30;51.20;;;;;;5080599;28;20025;-64
2023/08/18 05:41:30;;;;;;;2.65;1.75;;;26.30;51.40;;;;;;5079447;28;20385;-64
2023/08/18 05:43:56;;;;;;;2.70;1.65;;;26.30;51.60;;;;;;5081165;28;20020;-64
2023/08/18 05:46:21;;;;;;;3.00;2.03;;;26.30;51.90;;;;;;5077865;28;20035;-64
2023/08/18 05:48:47;;;;;;;2.60;2.00;;;26.30;52.20;;;;;;5080189;28;20039;-64
2023/08/18 05:51:13;;;;;;;2.92;1.90;;;26.20;52.30;;;;;;5078877;28;20093;-64
2023/08/18 05:53:39;;;;;;;3.33;1.95;;;26.20;52.60;;;;;;5078857;28;20082;-64
2023/08/18 05:56:04;;;;;;;2.28;1.70;;;26.10;52.80;;;;;;5080649;28;20029;-64
2023/08/18 05:58:30;;;;;;;2.47;1.80;;;26.10;52.90;;;;;;5079540;28;20023;-64
2023/08/18 06:00:56;;;;;;;2.85;1.60;;;26.10;53.70;;;;;;5078460;28;20396;-70
2023/08/18 06:03:21;;;;;;;2.45;1.60;;;26.00;53.20;;;;;;5078052;28;20024;-69
2023/08/18 06:05:48;;;;;;;2.00;1.52;;;26.00;53.40;;;;;;5078691;28;20492;-70
2023/08/18 06:08:13;;;;;;;2.50;1.83;;;26.00;53.60;;;;;;5079331;28;20427;-69
2023/08/18 06:10:40;;;;;;;2.72;1.92;;;25.90;53.70;;;;;;5078185;28;20020;-69
2023/08/18 06:13:06;;;;;;;2.75;1.48;;;25.90;53.80;;;;;;5078470;28;20039;-70
2023/08/18 06:15:31;;;;;;;2.40;1.83;;;25.90;53.90;;;;;;5047234;28;20028;-70
2023/08/18 06:17:57;;;;;;;2.10;1.60;;;25.80;54.00;;;;;;5076767;28;20031;-70
2023/08/18 06:20:23;;;;;;;3.63;1.80;;;25.80;54.10;;;;;;5077682;28;20192;-70
2023/08/18 06:22:48;;;;;;;2.42;1.50;;;25.80;54.20;;;;;;5078482;28;20027;-69
2023/08/18 06:25:14;;;;;;;2.30;1.60;;;25.80;54.40;;;;;;5074919;28;20028;-69
2023/08/18 06:27:40;;;;;;;2.08;1.65;;;25.70;55.00;;;;;;5077458;28;20108;-70
2023/08/18 06:30:06;;;;;;;3.13;1.67;;;25.70;54.80;;;;;;5078731;28;20533;-69
2023/08/18 06:32:32;;;;;;;3.58;2.00;;;25.70;55.00;;;;;;5077249;28;20196;-68
2023/08/18 06:34:58;;;;;;;2.60;1.88;;;25.70;55.20;;;;;;5076603;28;20043;-69
2023/08/18 06:37:24;;;;;;;3.17;1.83;;;25.70;55.40;;;;;;5078967;28;20016;-69
2023/08/18 06:39:50;;;;;;;2.38;1.70;;;25.70;55.70;;;;;;5079999;28;20055;-65
2023/08/18 06:42:16;;;;;;;2.28;1.60;;;25.70;55.70;;;;;;5079639;28;20435;-65
2023/08/18 06:44:41;;;;;;;2.00;1.35;;;25.60;56.00;;;;;;5079635;28;20495;-64
2023/08/18 06:47:07;;;;;;;2.83;1.40;;;25.60;56.00;;;;;;5079253;28;20364;-64
2023/08/18 06:49:33;;;;;;;1.52;1.20;;;25.60;55.90;;;;;;5077399;28;20028;-64
2023/08/18 06:51:58;;;;;;;1.40;1.10;;;25.60;55.80;;;;;;5077812;28;20494;-65
2023/08/18 06:54:24;;;;;;;1.85;1.20;;;25.70;55.80;;;;;;5075874;28;20090;-64
2023/08/18 06:56:49;;;;;;;2.03;1.30;;;25.70;55.70;;;;;;5078865;28;20373;-64
2023/08/18 06:59:15;;;;;;;2.22;1.20;;;25.70;55.70;;;;;;5079686;28;20028;-65
2023/08/18 07:01:41;;;;;;;2.45;1.30;;;25.70;56.10;;;;;;5077386;28;20028;-64
2023/08/18 07:04:08;;;;;;;1.85;1.42;;;25.70;55.50;;;;;;5075936;28;20043;-64
2023/08/18 07:06:34;;;;;;;1.40;1.13;;;25.70;55.50;;;;;;5077071;28;20027;-64
2023/08/18 07:09:00;;;;;;;1.50;1.20;;;25.80;56.00;;;;;;5077809;28;20108;-64
2023/08/18 07:11:26;;;;;;;2.20;1.30;;;25.80;55.50;;;;;;5075687;28;20048;-69
2023/08/18 07:13:52;;;;;;;1.70;1.20;;;25.80;55.40;;;;;;5077639;28;20541;-71
2023/08/18 07:16:18;;;;;;;1.70;1.30;;;25.80;55.40;;;;;;5077216;28;20024;-70
2023/08/18 07:18:43;;;;;;;1.77;1.20;;;25.90;55.40;;;;;;5079312;28;20027;-71
2023/08/18 07:21:09;;;;;;;2.22;1.20;;;25.90;55.30;;;;;;5080928;28;20392;-70
2023/08/18 07:23:34;;;;;;;1.90;1.40;;;25.90;55.30;;;;;;5061935;28;20112;-71
2023/08/18 07:26:01;;;;;;;1.70;1.30;;;25.90;55.70;;;;;;5077998;28;20036;-70
2023/08/18 07:28:27;;;;;;;1.92;1.40;;;26.00;55.20;;;;;;5075969;28;20016;-70
2023/08/18 07:30:53;;;;;;;1.60;1.40;;;26.00;55.20;;;;;;5075834;28;20035;-69
2023/08/18 07:33:27;;;;;;;1.58;1.30;;;26.00;55.10;;;;;;5076969;28;20032;-70
2023/08/18 07:35:53;;;;;;;1.92;1.33;;;26.00;55.10;;;;;;5078676;28;20102;-70
2023/08/18 07:38:18;;;;;;;2.03;1.30;;;26.10;55.10;;;;;;5077141;28;20029;-70
2023/08/18 07:40:44;;;;;;;1.70;1.30;;;26.10;55.10;;;;;;5078982;28;20028;-65
2023/08/18 07:43:10;;;;;;;1.50;1.40;;;26.20;55.10;;;;;;5077586;28;20020;-63
2023/08/18 07:45:36;;;;;;;1.67;1.40;;;26.20;55.00;;;;;;5078937;28;20684;-63
2023/08/18 07:48:02;;;;;;;1.80;1.23;;;26.20;55.00;;;;;;5078524;28;20020;-64
2023/08/18 07:50:27;;;;;;;1.67;1.20;;;26.20;55.00;;;;;;5062664;28;20064;-62
2023/08/18 07:52:53;;;;;;;2.13;1.40;;;26.20;55.00;;;;;;5077242;28;20024;-63
2023/08/18 07:55:21;;;;;;;1.60;1.30;;;26.20;55.00;;;;;;5074984;28;20036;-64
2023/08/18 07:57:47;;;;;;;1.50;1.13;;;26.30;55.00;;;;;;5077711;28;20028;-65
2023/08/18 08:00:16;;;;;;;1.90;1.25;;;26.30;55.00;;;;;;5078207;28;20020;-63
2023/08/18 08:02:42;;;;;;;;;;;26.30;54.90;;;;;;5078136;28;20027;-63
2023/08/18 08:05:09;;;;;;;2.25;1.38;;;26.30;54.90;;;;;;5077056;28;19980;-64
2023/08/18 08:07:34;;;;;;;1.40;1.10;;;26.30;54.80;;;;;;5077685;28;20511;-64
2023/08/18 08:10:04;;;;;;;1.80;1.20;;;26.30;54.80;;;;;;5079086;28;20025;-64
2023/08/18 08:12:30;;;;;;;1.40;1.15;;;26.40;54.80;;;;;;5075719;28;20142;-64
2023/08/18 08:14:57;;;;;;;1.35;1.20;;;26.40;54.80;;;;;;5075361;28;20042;-63
2023/08/18 08:17:23;;;;;;;1.75;1.30;;;26.40;54.70;;;;;;5074720;28;20395;-64
2023/08/18 08:19:49;;;;;;;2.40;1.35;;;26.40;54.70;;;;;;5076475;28;20107;-64
2023/08/18 08:22:16;;;;;;;1.67;1.27;;;26.50;54.70;;;;;;5076475;28;20025;-65
2023/08/18 08:24:42;;;;;;;1.90;1.30;;;26.50;54.70;;;;;;5080818;28;20036;-64
2023/08/18 08:27:07;;;;;;;1.80;1.10;;;26.50;54.60;;;;;;5081771;28;20139;-63
2023/08/18 08:29:33;;;;;;;1.67;1.27;;;26.50;54.60;;;;;;5082418;28;20438;-62
2023/08/18 08:31:59;;;;;;;1.52;1.20;;;26.50;54.60;;;;;;5066005;28;20028;-62
2023/08/18 08:34:24;;;;;;;2.08;1.45;;;26.60;54.60;;;;;;5077711;28;20935;-63
2023/08/18 08:36:51;;;;;;;2.03;1.30;;;26.60;54.60;;;;;;5081270;28;20030;-63
2023/08/18 08:39:17;;;;;;;1.75;1.30;;;26.60;54.50;;;;;;5081099;28;20108;-63
2023/08/18 08:41:43;;;;;;;1.58;1.30;;;26.60;54.60;;;;;;5080687;28;20104;-63
2023/08/18 08:44:08;;;;;;;1.58;1.17;;;26.60;54.50;;;;;;5079618;28;20068;-63
2023/08/18 08:46:37;;;;;;;1.67;1.20;;;26.60;54.50;;;;;;5080738;28;20024;-63
2023/08/18 08:49:04;;;;;;;1.70;1.20;;;26.60;54.50;;;;;;5078769;28;20032;-62
2023/08/18 08:51:35;;;;;;;1.55;1.30;;;26.70;54.50;;;;;;5081798;28;20024;-64
2023/08/18 08:54:02;;;;;;;1.52;1.30;;;26.70;54.50;;;;;;5079813;28;20055;-65
2023/08/18 08:56:31;;;;;;;1.40;1.10;;;26.70;54.50;;;;;;5063749;28;20028;-64
2023/08/18 08:58:57;;;;;;;1.77;1.20;;;26.70;54.40;;;;;;5079026;28;20032;-64
2023/08/18 09:01:23;;;;;;;1.20;1.10;;;26.70;54.40;;;;;;5080043;28;20046;-70
2023/08/18 09:03:50;;;;;;;1.20;1.02;;;26.80;54.50;;;;;;5079896;28;20024;-70
2023/08/18 09:06:16;;;;;;;1.20;1.10;;;26.80;54.50;;;;;;5065389;28;20107;-69
2023/08/18 09:08:41;;;;;;;1.50;1.25;;;26.80;54.40;;;;;;5080564;28;20115;-70
2023/08/18 09:11:10;;;;;;;1.50;1.25;;;26.80;54.50;;;;;;5080275;28;20467;-70
2023/08/18 09:13:36;;;;;;;1.27;1.08;;;26.80;54.50;;;;;;5081795;28;20392;-70
2023/08/18 09:16:03;;;;;;;1.65;1.20;;;26.80;54.50;;;;;;5079222;28;20154;-70
2023/08/18 09:18:32;;;;;;;1.40;1.20;;;26.80;54.40;;;;;;5079660;28;20365;-70
2023/08/18 09:20:58;;;;;;;1.50;1.10;;;26.90;54.40;;;;;;5081276;28;20086;-64
2023/08/18 09:23:27;;;;;;;1.65;1.20;;;26.90;54.40;;;;;;5079870;28;20262;-64
2023/08/18 09:25:55;;;;;;;;;;;26.90;54.40;;;;;;5078912;28;20029;-64
2023/08/18 09:28:21;;;;;;;1.55;1.23;;;26.90;54.40;;;;;;5077115;28;19914;-63
2023/08/18 09:30:47;;;;;;;1.60;1.13;;;26.90;54.40;;;;;;5080085;28;20132;-63
2023/08/18 09:33:12;;;;;;;1.10;1.00;;;26.90;54.40;;;;;;5079352;28;20032;-63
2023/08/18 09:35:38;;;;;;;1.45;1.00;;;27.00;54.40;;;;;;5079932;28;20024;-64
2023/08/18 09:38:04;;;;;;;1.70;1.10;;;27.00;54.50;;;;;;5079590;28;20021;-63
2023/08/18 09:40:29;;;;;;;1.75;1.10;;;27.00;54.40;;;;;;5081735;28;20024;-69
2023/08/18 09:42:56;;;;;;;1.35;1.10;;;27.00;54.40;;;;;;5080267;28;20429;-68
2023/08/18 09:45:23;;;;;;;1.42;1.10;;;27.00;54.40;;;;;;5079506;28;20043;-69
2023/08/18 09:47:54;;;;;;;1.70;1.20;;;27.10;54.50;;;;;;5082405;28;20499;-69
2023/08/18 09:50:25;;;;;;;3.03;1.10;;;27.10;54.40;;;;;;5077929;28;20024;-68
2023/08/18 09:52:56;;;;;;;1.05;0.90;;;27.10;54.50;;;;;;5079355;28;20387;-69
2023/08/18 09:55:27;;;;;;;1.38;1.08;;;27.10;54.60;;;;;;5080090;28;20043;-69
2023/08/18 09:57:57;;;;;;;1.17;1.00;;;27.10;54.50;;;;;;5078815;28;20461;-69
2023/08/18 10:00:25;;;;;;;1.10;0.95;;;27.10;54.50;;;;;;5079104;28;20447;-69
2023/08/18 10:02:58;;;;;;;1.38;1.10;;;27.10;55.00;;;;;;5077977;28;20043;-68
2023/08/18 10:05:24;;;;;;;1.35;1.00;;;27.10;54.50;;;;;;5077391;28;20476;-69
2023/08/18 10:07:51;;;;;;;1.38;1.10;;;27.20;54.60;;;;;;5076740;28;20116;-69
2023/08/18 10:10:18;;;;;;;1.20;1.10;;;27.20;54.60;;;;;;5077302;28;20423;-68
2023/08/18 10:12:44;;;;;;;1.38;1.10;;;27.20;54.50;;;;;;5080747;28;20037;-68
2023/08/18 10:15:11;;;;;;;1.83;1.13;;;27.20;54.50;;;;;;5078120;28;20523;-69
2023/08/18 10:17:37;;;;;;;1.30;1.05;;;27.20;54.50;;;;;;5079274;28;20125;-69
2023/08/18 10:20:03;;;;;;;1.23;1.00;;;27.30;54.50;;;;;;5062335;28;20118;-63
2023/08/18 10:22:32;;;;;;;1.00;0.90;;;27.20;54.50;;;;;;5080515;28;20029;-63
2023/08/18 10:24:58;;;;;;;1.38;1.10;;;27.30;54.50;;;;;;5079597;28;20564;-65
2023/08/18 10:27:26;;;;;;;1.08;0.90;;;27.20;54.40;;;;;;5077277;28;20133;-65
2023/08/18 10:29:57;;;;;;;1.38;1.02;;;27.30;54.50;;;;;;5080382;28;20551;-64
2023/08/18 10:32:23;;;;;;;1.10;1.00;;;27.30;54.50;;;;;;5078255;28;20044;-63
2023/08/18 10:34:52;;;;;;;1.30;1.05;;;27.30;54.50;;;;;;5076744;28;20495;-64
2023/08/18 10:37:22;;;;;;;1.67;1.10;;;27.30;54.40;;;;;;5077894;28;20391;-64
2023/08/18 10:39:50;;;;;;;2.63;1.10;;;27.30;54.40;;;;;;5076932;28;20020;-69
2023/08/18 10:42:16;;;;;;;1.33;1.13;;;27.30;54.40;;;;;;5080072;28;20032;-70
2023/08/18 10:45:00;;;;;;;1.27;1.00;;;27.30;54.40;;;;;;5077500;28;20046;-70
2023/08/18 10:47:34;;;;;;;1.48;1.00;;;27.40;54.40;;;;;;5077172;28;20533;-70
2023/08/18 10:50:04;;;;;;;1.60;0.90;;;27.40;54.40;;;;;;5063380;28;20379;-63
2023/08/18 10:52:31;;;;;;;1.98;1.00;;;27.40;54.90;;;;;;5078529;28;20028;-65
2023/08/18 10:54:57;;;;;;;2.20;1.08;;;27.40;54.40;;;;;;5079576;28;20024;-64
2023/08/18 10:57:27;;;;;;;1.33;1.00;;;27.40;54.40;;;;;;5077582;28;20029;-64
2023/08/18 10:59:52;;;;;;;3.35;1.02;;;27.40;54.40;;;;;;5078271;28;20048;-63
2023/08/18 11:02:18;;;;;;;1.15;0.98;;;27.40;54.40;;;;;;5077185;28;20075;-64
2023/08/18 11:04:43;;;;;;;1.60;1.05;;;27.40;54.40;;;;;;5075820;28;20607;-64
2023/08/18 11:07:09;;;;;;;1.10;0.98;;;27.40;54.30;;;;;;5077718;28;20515;-65
2023/08/18 11:09:36;;;;;;;1.13;1.00;;;27.50;54.40;;;;;;5076647;28;20040;-64
2023/08/18 11:12:05;;;;;;;1.10;0.90;;;27.50;54.30;;;;;;5077904;28;20028;-64
2023/08/18 11:14:31;;;;;;;;;;;27.50;54.30;;;;;;5082381;28;20565;-63
2023/08/18 11:16:57;;;;;;;1.38;0.90;;;27.50;54.40;;;;;;5074788;28;19937;-63
2023/08/18 11:19:22;;;;;;;1.02;0.90;;;27.50;54.40;;;;;;5077664;28;20024;-64
2023/08/18 11:21:48;;;;;;;1.70;1.08;;;27.50;54.50;;;;;;5077552;28;20409;-63
2023/08/18 11:24:14;;;;;;;1.20;1.00;;;27.50;54.40;;;;;;5078791;28;20031;-64
2023/08/18 11:26:40;;;;;;;1.30;0.93;;;27.50;54.30;;;;;;5077912;28;20055;-65
2023/08/18 11:29:06;;;;;;;1.00;0.90;;;27.50;54.40;;;;;;5079041;28;20383;-64
2023/08/18 11:31:32;;;;;;;2.85;1.10;;;27.50;55.00;;;;;;5065976;28;20032;-70
2023/08/18 11:33:58;;;;;;;2.67;1.08;;;27.50;54.50;;;;;;5076392;28;20029;-69
2023/08/18 11:36:29;;;;;;;1.10;1.00;;;27.60;54.50;;;;;;5077646;28;20757;-70
2023/08/18 11:39:00;;;;;;;1.20;1.00;;;27.60;54.60;;;;;;5062323;28;20095;-69
2023/08/18 11:41:25;;;;;;;1.50;0.90;;;27.60;54.60;;;;;;5078028;28;20025;-69
2023/08/18 11:43:51;;;;;;;1.13;0.90;;;27.60;54.60;;;;;;5075852;28;20047;-69
2023/08/18 11:46:17;;;;;;;1.83;0.90;;;27.60;54.70;;;;;;5080765;28;20314;-70
2023/08/18 11:48:42;;;;;;;2.30;1.00;;;27.60;54.70;;;;;;5077094;28;20033;-70
2023/08/18 11:51:13;;;;;;;1.60;1.10;;;27.60;54.70;;;;;;5078128;28;20033;-71
2023/08/18 11:53:39;;;;;;;1.40;1.10;;;27.70;54.80;;;;;;5076602;28;20104;-69
2023/08/18 11:56:05;;;;;;;1.70;1.10;;;27.70;54.80;;;;;;5078585;28;20103;-70
2023/08/18 11:58:33;;;;;;;1.50;1.00;;;27.70;54.80;;;;;;5077724;28;20025;-70
2023/08/18 12:01:04;;;;;;;1.00;0.90;;;27.70;54.70;;;;;;5080691;28;20024;-70
2023/08/18 12:03:30;;;;;;;1.73;1.20;;;27.70;54.70;;;;;;5081958;28;20270;-70
2023/08/18 12:05:58;;;;;;;1.33;0.95;;;27.70;54.70;;;;;;5081107;28;20031;-71
2023/08/18 12:08:26;;;;;;;1.30;0.90;;;27.70;54.80;;;;;;5081419;28;20028;-71
2023/08/18 12:10:53;;;;;;;1.20;1.00;;;27.70;54.80;;;;;;5080375;28;20450;-70
2023/08/18 12:13:20;;;;;;;1.50;1.10;;;27.70;54.80;;;;;;5082549;28;20024;-70
2023/08/18 12:15:46;;;;;;;1.80;1.23;;;27.70;54.80;;;;;;5080907;28;20039;-69
2023/08/18 12:18:12;;;;;;;1.27;1.00;;;27.70;54.80;;;;;;5064334;28;20032;-70
2023/08/18 12:20:37;;;;;;;1.00;0.90;;;27.70;54.70;;;;;;5079174;28;20482;-70
2023/08/18 12:23:03;;;;;;;1.58;1.05;;;27.80;54.80;;;;;;5082943;28;20099;-70
2023/08/18 12:25:29;;;;;;;1.38;1.00;;;27.80;54.80;;;;;;5082165;28;20028;-70
2023/08/18 12:27:55;;;;;;;1.40;1.00;;;27.80;54.70;;;;;;5081159;28;20545;-70
2023/08/18 12:30:22;;;;;;;1.30;0.95;;;27.80;54.70;;;;;;5081814;28;20115;-70
2023/08/18 12:32:49;;;;;;;1.15;1.00;;;27.80;54.70;;;;;;5080914;28;20070;-71
2023/08/18 12:35:15;;;;;;;1.00;0.82;;;27.80;54.60;;;;;;5081703;28;20597;-70
2023/08/18 12:37:42;;;;;;;1.08;0.88;;;27.80;54.60;;;;;;5080867;28;20025;-70
2023/08/18 12:40:10;;;;;;;1.48;1.00;;;27.80;54.60;;;;;;5080490;28;20054;-70
2023/08/18 12:42:40;;;;;;;1.67;1.00;;;27.80;54.60;;;;;;5082344;28;20118;-69
2023/08/18 12:45:07;;;;;;;0.95;0.90;;;27.80;54.60;;;;;;5081749;28;20040;-69